sensor_id;sensor_type;location;lat;lon;timestamp;temperature;humidity
2867;DHT22;1441;48.886;8.728;2024-03-22T00:00:44;9.70;99.20
2867;DHT22;1441;48.886;8.728;2024-03-22T00:03:10;9.50;99.70
2867;DHT22;1441;48.886;8.728;2024-03-22T00:05:36;9.40;99.90
2867;DHT22;1441;48.886;8.728;2024-03-22T00:08:01;9.30;99.90
2867;DHT22;1441;48.886;8.728;2024-03-22T00:10:27;9.30;99.90
2867;DHT22;1441;48.886;8.728;2024-03-22T00:12:52;9.50;98.90
2867;DHT22;1441;48.886;8.728;2024-03-22T00:15:18;9.60;98.60
2867;DHT22;1441;48.886;8.728;2024-03-22T00:17:44;9.50;98.60
2867;DHT22;1441;48.886;8.728;2024-03-22T00:20:10;9.60;98.60
2867;DHT22;1441;48.886;8.728;2024-03-22T00:22:36;9.50;98.40
2867;DHT22;1441;48.886;8.728;2024-03-22T00:25:02;9.60;98.20
2867;DHT22;1441;48.886;8.728;2024-03-22T00:27:27;9.60;97.60
2867;DHT22;1441;48.886;8.728;2024-03-22T00:29:53;9.50;97.80
2867;DHT22;1441;48.886;8.728;2024-03-22T00:32:19;9.40;98.10
2867;DHT22;1441;48.886;8.728;2024-03-22T00:34:44;9.30;98.40
2867;DHT22;1441;48.886;8.728;2024-03-22T00:37:10;9.10;99.40
2867;DHT22;1441;48.886;8.728;2024-03-22T00:39:36;9.10;99.40
2867;DHT22;1441;48.886;8.728;2024-03-22T00:42:01;9.20;98.80
2867;DHT22;1441;48.886;8.728;2024-03-22T00:44:27;9.20;98.60
2867;DHT22;1441;48.886;8.728;2024-03-22T00:46:52;9.10;99.10
2867;DHT22;1441;48.886;8.728;2024-03-22T00:49:18;8.90;99.90
2867;DHT22;1441;48.886;8.728;2024-03-22T00:51:43;8.80;99.90
2867;DHT22;1441;48.886;8.728;2024-03-22T00:54:10;8.90;99.90
2867;DHT22;1441;48.886;8.728;2024-03-22T00:56:36;9.10;99.70
2867;DHT22;1441;48.886;8.728;2024-03-22T00:59:01;9.00;99.40
2867;DHT22;1441;48.886;8.728;2024-03-22T01:01:27;8.80;99.90
2867;DHT22;1441;48.886;8.728;2024-03-22T01:03:53;8.80;99.90
2867;DHT22;1441;48.886;8.728;2024-03-22T01:06:18;9.00;99.60
2867;DHT22;1441;48.886;8.728;2024-03-22T01:08:49;8.90;99.70
2867;DHT22;1441;48.886;8.728;2024-03-22T01:11:15;8.80;99.90
2867;DHT22;1441;48.886;8.728;2024-03-22T01:13:40;8.70;99.90
2867;DHT22;1441;48.886;8.728;2024-03-22T01:16:06;8.70;99.90
2867;DHT22;1441;48.886;8.728;2024-03-22T01:18:35;8.70;99.90
2867;DHT22;1441;48.886;8.728;2024-03-22T01:21:01;8.70;99.90
2867;DHT22;1441;48.886;8.728;2024-03-22T01:23:27;8.60;99.90
2867;DHT22;1441;48.886;8.728;2024-03-22T01:25:52;8.50;99.90
2867;DHT22;1441;48.886;8.728;2024-03-22T01:28:18;8.50;99.90
2867;DHT22;1441;48.886;8.728;2024-03-22T01:30:43;8.40;99.90
2867;DHT22;1441;48.886;8.728;2024-03-22T01:33:09;8.40;99.90
2867;DHT22;1441;48.886;8.728;2024-03-22T01:35:34;8.30;99.90
2867;DHT22;1441;48.886;8.728;2024-03-22T01:38:00;8.30;99.90
2867;DHT22;1441;48.886;8.728;2024-03-22T01:40:25;8.30;99.90
2867;DHT22;1441;48.886;8.728;2024-03-22T01:42:58;8.30;99.90
2867;DHT22;1441;48.886;8.728;2024-03-22T01:45:24;8.30;99.90
2867;DHT22;1441;48.886;8.728;2024-03-22T01:47:53;8.20;99.90
2867;DHT22;1441;48.886;8.728;2024-03-22T01:50:21;8.20;99.90
2867;DHT22;1441;48.886;8.728;2024-03-22T01:52:47;8.20;99.90
2867;DHT22;1441;48.886;8.728;2024-03-22T01:55:13;8.10;99.90
2867;DHT22;1441;48.886;8.728;2024-03-22T01:57:39;8.20;99.90
2867;DHT22;1441;48.886;8.728;2024-03-22T02:00:05;8.30;99.90
2867;DHT22;1441;48.886;8.728;2024-03-22T02:02:31;8.20;99.90
2867;DHT22;1441;48.886;8.728;2024-03-22T02:04:57;8.10;99.90
2867;DHT22;1441;48.886;8.728;2024-03-22T02:07:22;8.10;99.90
2867;DHT22;1441;48.886;8.728;2024-03-22T02:09:49;8.00;99.90
2867;DHT22;1441;48.886;8.728;2024-03-22T02:12:14;7.90;99.90
2867;DHT22;1441;48.886;8.728;2024-03-22T02:14:41;8.00;99.90
2867;DHT22;1441;48.886;8.728;2024-03-22T02:17:06;8.10;99.90
2867;DHT22;1441;48.886;8.728;2024-03-22T02:19:32;8.00;99.90
2867;DHT22;1441;48.886;8.728;2024-03-22T02:21:57;8.00;99.90
2867;DHT22;1441;48.886;8.728;2024-03-22T02:24:23;8.10;99.90
2867;DHT22;1441;48.886;8.728;2024-03-22T02:26:48;8.10;99.90
2867;DHT22;1441;48.886;8.728;2024-03-22T02:29:14;8.00;99.90
2867;DHT22;1441;48.886;8.728;2024-03-22T02:31:39;8.10;99.90
2867;DHT22;1441;48.886;8.728;2024-03-22T02:34:05;8.10;99.90
2867;DHT22;1441;48.886;8.728;2024-03-22T02:36:31;8.10;99.90
2867;DHT22;1441;48.886;8.728;2024-03-22T02:38:56;8.20;99.90
2867;DHT22;1441;48.886;8.728;2024-03-22T02:41:22;8.20;99.90
2867;DHT22;1441;48.886;8.728;2024-03-22T02:43:47;8.40;99.90
2867;DHT22;1441;48.886;8.728;2024-03-22T02:46:13;8.60;99.90
2867;DHT22;1441;48.886;8.728;2024-03-22T02:48:38;8.60;99.90
2867;DHT22;1441;48.886;8.728;2024-03-22T02:51:04;8.90;99.90
2867;DHT22;1441;48.886;8.728;2024-03-22T02:53:30;8.90;99.90
2867;DHT22;1441;48.886;8.728;2024-03-22T02:55:55;8.70;99.90
2867;DHT22;1441;48.886;8.728;2024-03-22T02:58:21;8.70;99.90
2867;DHT22;1441;48.886;8.728;2024-03-22T03:00:47;8.80;99.90
2867;DHT22;1441;48.886;8.728;2024-03-22T03:03:13;8.80;99.90
2867;DHT22;1441;48.886;8.728;2024-03-22T03:05:38;8.90;99.90
2867;DHT22;1441;48.886;8.728;2024-03-22T03:08:04;8.80;99.90
2867;DHT22;1441;48.886;8.728;2024-03-22T03:10:29;8.70;99.90
2867;DHT22;1441;48.886;8.728;2024-03-22T03:12:55;8.70;99.90
2867;DHT22;1441;48.886;8.728;2024-03-22T03:15:21;8.70;99.90
2867;DHT22;1441;48.886;8.728;2024-03-22T03:17:46;8.60;99.90
2867;DHT22;1441;48.886;8.728;2024-03-22T03:20:12;8.70;99.90
2867;DHT22;1441;48.886;8.728;2024-03-22T03:22:39;8.80;99.90
2867;DHT22;1441;48.886;8.728;2024-03-22T03:25:05;8.80;99.90
2867;DHT22;1441;48.886;8.728;2024-03-22T03:27:32;8.80;99.90
2867;DHT22;1441;48.886;8.728;2024-03-22T03:29:57;8.80;99.90
2867;DHT22;1441;48.886;8.728;2024-03-22T03:32:23;8.70;99.90
2867;DHT22;1441;48.886;8.728;2024-03-22T03:34:50;8.80;99.90
2867;DHT22;1441;48.886;8.728;2024-03-22T03:37:15;8.80;99.90
2867;DHT22;1441;48.886;8.728;2024-03-22T03:39:42;8.80;99.90
2867;DHT22;1441;48.886;8.728;2024-03-22T03:42:07;8.80;99.90
2867;DHT22;1441;48.886;8.728;2024-03-22T03:44:33;8.90;99.90
2867;DHT22;1441;48.886;8.728;2024-03-22T03:47:00;8.90;99.90
2867;DHT22;1441;48.886;8.728;2024-03-22T03:49:25;8.90;99.90
2867;DHT22;1441;48.886;8.728;2024-03-22T03:51:51;8.90;99.90
2867;DHT22;1441;48.886;8.728;2024-03-22T03:54:17;8.90;99.90
2867;DHT22;1441;48.886;8.728;2024-03-22T03:56:42;8.90;99.90
2867;DHT22;1441;48.886;8.728;2024-03-22T03:59:08;8.90;99.90
2867;DHT22;1441;48.886;8.728;2024-03-22T04:01:33;8.80;99.90
2867;DHT22;1441;48.886;8.728;2024-03-22T04:03:59;8.70;99.90
2867;DHT22;1441;48.886;8.728;2024-03-22T04:06:24;8.80;99.90
2867;DHT22;1441;48.886;8.728;2024-03-22T04:08:50;8.90;99.90
2867;DHT22;1441;48.886;8.728;2024-03-22T04:11:15;8.90;99.90
2867;DHT22;1441;48.886;8.728;2024-03-22T04:13:41;8.90;99.90
2867;DHT22;1441;48.886;8.728;2024-03-22T04:16:07;8.90;99.90
2867;DHT22;1441;48.886;8.728;2024-03-22T04:18:32;8.90;99.90
2867;DHT22;1441;48.886;8.728;2024-03-22T04:20:59;8.80;99.90
2867;DHT22;1441;48.886;8.728;2024-03-22T04:23:25;8.70;99.90
2867;DHT22;1441;48.886;8.728;2024-03-22T04:25:58;8.80;99.90
2867;DHT22;1441;48.886;8.728;2024-03-22T04:28:27;8.90;99.90
2867;DHT22;1441;48.886;8.728;2024-03-22T04:31:00;8.80;99.90
2867;DHT22;1441;48.886;8.728;2024-03-22T04:33:27;8.90;99.90
2867;DHT22;1441;48.886;8.728;2024-03-22T04:35:54;8.90;99.90
2867;DHT22;1441;48.886;8.728;2024-03-22T04:38:20;8.90;99.90
2867;DHT22;1441;48.886;8.728;2024-03-22T04:40:45;8.90;99.90
2867;DHT22;1441;48.886;8.728;2024-03-22T04:43:11;8.90;99.90
2867;DHT22;1441;48.886;8.728;2024-03-22T04:45:37;8.90;99.90
2867;DHT22;1441;48.886;8.728;2024-03-22T04:48:04;8.80;99.90
2867;DHT22;1441;48.886;8.728;2024-03-22T04:50:30;8.80;99.90
2867;DHT22;1441;48.886;8.728;2024-03-22T04:52:55;8.90;99.90
2867;DHT22;1441;48.886;8.728;2024-03-22T04:55:21;8.90;99.90
2867;DHT22;1441;48.886;8.728;2024-03-22T04:57:51;8.90;99.90
2867;DHT22;1441;48.886;8.728;2024-03-22T05:00:17;8.90;99.90
2867;DHT22;1441;48.886;8.728;2024-03-22T05:02:43;8.90;99.90
2867;DHT22;1441;48.886;8.728;2024-03-22T05:05:08;8.80;99.90
2867;DHT22;1441;48.886;8.728;2024-03-22T05:07:34;8.80;99.90
2867;DHT22;1441;48.886;8.728;2024-03-22T05:09:59;8.80;99.90
2867;DHT22;1441;48.886;8.728;2024-03-22T05:12:25;8.80;99.90
2867;DHT22;1441;48.886;8.728;2024-03-22T05:14:51;8.70;99.90
2867;DHT22;1441;48.886;8.728;2024-03-22T05:17:16;8.70;99.90
2867;DHT22;1441;48.886;8.728;2024-03-22T05:19:42;8.50;99.90
2867;DHT22;1441;48.886;8.728;2024-03-22T05:22:07;8.40;99.90
2867;DHT22;1441;48.886;8.728;2024-03-22T05:24:33;8.40;99.90
2867;DHT22;1441;48.886;8.728;2024-03-22T05:26:58;8.40;99.90
2867;DHT22;1441;48.886;8.728;2024-03-22T05:29:25;8.40;99.90
2867;DHT22;1441;48.886;8.728;2024-03-22T05:31:50;8.30;99.90
2867;DHT22;1441;48.886;8.728;2024-03-22T05:34:17;8.30;99.90
2867;DHT22;1441;48.886;8.728;2024-03-22T05:36:44;8.20;99.90
2867;DHT22;1441;48.886;8.728;2024-03-22T05:39:09;8.30;99.90
2867;DHT22;1441;48.886;8.728;2024-03-22T05:41:38;8.20;99.90
2867;DHT22;1441;48.886;8.728;2024-03-22T05:44:04;8.20;99.90
2867;DHT22;1441;48.886;8.728;2024-03-22T05:46:30;8.10;99.90
2867;DHT22;1441;48.886;8.728;2024-03-22T05:48:56;8.20;99.90
2867;DHT22;1441;48.886;8.728;2024-03-22T05:51:22;8.30;99.90
2867;DHT22;1441;48.886;8.728;2024-03-22T05:53:47;8.30;99.90
2867;DHT22;1441;48.886;8.728;2024-03-22T05:56:13;8.30;99.90
2867;DHT22;1441;48.886;8.728;2024-03-22T05:58:39;8.50;99.90
2867;DHT22;1441;48.886;8.728;2024-03-22T06:01:05;8.50;99.90
2867;DHT22;1441;48.886;8.728;2024-03-22T06:03:31;8.40;99.90
2867;DHT22;1441;48.886;8.728;2024-03-22T06:05:59;8.40;99.90
2867;DHT22;1441;48.886;8.728;2024-03-22T06:08:26;8.40;99.90
2867;DHT22;1441;48.886;8.728;2024-03-22T06:10:55;8.50;99.90
2867;DHT22;1441;48.886;8.728;2024-03-22T06:13:23;8.60;99.90
2867;DHT22;1441;48.886;8.728;2024-03-22T06:15:49;8.70;99.90
2867;DHT22;1441;48.886;8.728;2024-03-22T06:18:15;9.00;99.90
2867;DHT22;1441;48.886;8.728;2024-03-22T06:20:41;9.00;99.90
2867;DHT22;1441;48.886;8.728;2024-03-22T06:23:08;9.20;99.90
2867;DHT22;1441;48.886;8.728;2024-03-22T06:25:33;9.70;99.50
2867;DHT22;1441;48.886;8.728;2024-03-22T06:27:59;10.10;98.10
2867;DHT22;1441;48.886;8.728;2024-03-22T06:30:25;10.20;97.50
2867;DHT22;1441;48.886;8.728;2024-03-22T06:32:50;10.30;97.40
2867;DHT22;1441;48.886;8.728;2024-03-22T06:35:16;10.60;96.40
2867;DHT22;1441;48.886;8.728;2024-03-22T06:37:41;10.90;96.00
2867;DHT22;1441;48.886;8.728;2024-03-22T06:40:08;11.30;94.90
2867;DHT22;1441;48.886;8.728;2024-03-22T06:42:33;11.80;92.70
2867;DHT22;1441;48.886;8.728;2024-03-22T06:44:59;12.20;91.20
2867;DHT22;1441;48.886;8.728;2024-03-22T06:47:24;12.70;89.70
2867;DHT22;1441;48.886;8.728;2024-03-22T06:49:50;12.90;89.50
2867;DHT22;1441;48.886;8.728;2024-03-22T06:52:16;13.70;87.70
2867;DHT22;1441;48.886;8.728;2024-03-22T06:54:43;15.20;82.60
2867;DHT22;1441;48.886;8.728;2024-03-22T06:57:09;16.40;79.50
2867;DHT22;1441;48.886;8.728;2024-03-22T06:59:34;17.90;75.30
2867;DHT22;1441;48.886;8.728;2024-03-22T07:02:00;17.90;75.00
2867;DHT22;1441;48.886;8.728;2024-03-22T07:04:25;18.00;75.20
2867;DHT22;1441;48.886;8.728;2024-03-22T07:06:51;17.70;75.90
2867;DHT22;1441;48.886;8.728;2024-03-22T07:09:16;18.40;74.30
2867;DHT22;1441;48.886;8.728;2024-03-22T07:11:42;18.50;74.60
2867;DHT22;1441;48.886;8.728;2024-03-22T07:14:07;19.00;73.50
2867;DHT22;1441;48.886;8.728;2024-03-22T07:16:33;19.40;72.50
2867;DHT22;1441;48.886;8.728;2024-03-22T07:18:59;19.40;72.30
2867;DHT22;1441;48.886;8.728;2024-03-22T07:21:24;19.50;72.10
2867;DHT22;1441;48.886;8.728;2024-03-22T07:23:50;19.60;72.20
2867;DHT22;1441;48.886;8.728;2024-03-22T07:26:16;19.80;71.90
2867;DHT22;1441;48.886;8.728;2024-03-22T07:28:41;19.90;71.50
2867;DHT22;1441;48.886;8.728;2024-03-22T07:31:07;20.20;71.00
2867;DHT22;1441;48.886;8.728;2024-03-22T07:33:33;20.20;71.20
2867;DHT22;1441;48.886;8.728;2024-03-22T07:36:02;20.40;70.50
2867;DHT22;1441;48.886;8.728;2024-03-22T07:38:28;20.10;70.50
2867;DHT22;1441;48.886;8.728;2024-03-22T07:40:54;19.00;72.80
2867;DHT22;1441;48.886;8.728;2024-03-22T07:43:19;17.80;76.30
2867;DHT22;1441;48.886;8.728;2024-03-22T07:45:45;17.10;78.30
2867;DHT22;1441;48.886;8.728;2024-03-22T07:48:10;17.10;79.00
2867;DHT22;1441;48.886;8.728;2024-03-22T07:50:36;18.60;75.30
2867;DHT22;1441;48.886;8.728;2024-03-22T07:53:02;19.80;72.10
2867;DHT22;1441;48.886;8.728;2024-03-22T07:55:27;20.80;69.90
2867;DHT22;1441;48.886;8.728;2024-03-22T07:57:53;21.40;68.60
2867;DHT22;1441;48.886;8.728;2024-03-22T08:00:19;21.70;68.40
2867;DHT22;1441;48.886;8.728;2024-03-22T08:02:44;22.20;67.40
2867;DHT22;1441;48.886;8.728;2024-03-22T08:05:10;22.70;66.30
2867;DHT22;1441;48.886;8.728;2024-03-22T08:07:36;23.10;65.30
2867;DHT22;1441;48.886;8.728;2024-03-22T08:10:01;23.50;63.90
2867;DHT22;1441;48.886;8.728;2024-03-22T08:12:28;23.40;63.60
2867;DHT22;1441;48.886;8.728;2024-03-22T08:14:53;22.80;64.30
2867;DHT22;1441;48.886;8.728;2024-03-22T08:17:19;22.40;64.90
2867;DHT22;1441;48.886;8.728;2024-03-22T08:19:45;22.00;65.90
2867;DHT22;1441;48.886;8.728;2024-03-22T08:22:10;21.70;66.80
2867;DHT22;1441;48.886;8.728;2024-03-22T08:24:36;22.00;66.60
2867;DHT22;1441;48.886;8.728;2024-03-22T08:27:03;22.40;65.90
2867;DHT22;1441;48.886;8.728;2024-03-22T08:29:28;23.00;65.70
2867;DHT22;1441;48.886;8.728;2024-03-22T08:31:54;23.80;63.90
2867;DHT22;1441;48.886;8.728;2024-03-22T08:34:21;24.30;62.80
2867;DHT22;1441;48.886;8.728;2024-03-22T08:36:46;24.80;61.30
2867;DHT22;1441;48.886;8.728;2024-03-22T08:39:12;24.90;61.00
2867;DHT22;1441;48.886;8.728;2024-03-22T08:41:37;25.00;60.10
2867;DHT22;1441;48.886;8.728;2024-03-22T08:44:03;25.20;59.80
2867;DHT22;1441;48.886;8.728;2024-03-22T08:46:29;25.40;60.20
2867;DHT22;1441;48.886;8.728;2024-03-22T08:48:54;25.80;58.60
2867;DHT22;1441;48.886;8.728;2024-03-22T08:51:21;25.60;58.90
2867;DHT22;1441;48.886;8.728;2024-03-22T08:53:47;25.20;59.20
2867;DHT22;1441;48.886;8.728;2024-03-22T08:56:12;24.40;60.70
2867;DHT22;1441;48.886;8.728;2024-03-22T08:58:38;23.70;62.30
2867;DHT22;1441;48.886;8.728;2024-03-22T09:01:04;22.70;64.70
2867;DHT22;1441;48.886;8.728;2024-03-22T09:03:30;22.20;65.90
2867;DHT22;1441;48.886;8.728;2024-03-22T09:05:56;22.10;65.80
2867;DHT22;1441;48.886;8.728;2024-03-22T09:08:21;21.90;66.90
2867;DHT22;1441;48.886;8.728;2024-03-22T09:10:47;22.10;65.80
2867;DHT22;1441;48.886;8.728;2024-03-22T09:13:13;21.80;66.90
2867;DHT22;1441;48.886;8.728;2024-03-22T09:15:39;21.70;66.50
2867;DHT22;1441;48.886;8.728;2024-03-22T09:18:05;21.30;67.60
2867;DHT22;1441;48.886;8.728;2024-03-22T09:20:30;20.90;68.50
2867;DHT22;1441;48.886;8.728;2024-03-22T09:22:56;20.90;69.10
2867;DHT22;1441;48.886;8.728;2024-03-22T09:25:23;21.50;68.10
2867;DHT22;1441;48.886;8.728;2024-03-22T09:27:49;21.80;66.80
2867;DHT22;1441;48.886;8.728;2024-03-22T09:30:15;21.70;67.40
2867;DHT22;1441;48.886;8.728;2024-03-22T09:32:41;21.40;67.80
2867;DHT22;1441;48.886;8.728;2024-03-22T09:35:08;21.00;68.00
2867;DHT22;1441;48.886;8.728;2024-03-22T09:37:33;20.60;68.20
2867;DHT22;1441;48.886;8.728;2024-03-22T09:39:59;20.20;69.10
2867;DHT22;1441;48.886;8.728;2024-03-22T09:42:25;19.90;69.10
2867;DHT22;1441;48.886;8.728;2024-03-22T09:44:51;20.00;69.50
2867;DHT22;1441;48.886;8.728;2024-03-22T09:47:18;20.10;69.90
2867;DHT22;1441;48.886;8.728;2024-03-22T09:49:44;20.20;69.50
2867;DHT22;1441;48.886;8.728;2024-03-22T09:52:15;20.30;69.70
2867;DHT22;1441;48.886;8.728;2024-03-22T09:54:43;20.40;68.50
2867;DHT22;1441;48.886;8.728;2024-03-22T09:57:15;20.70;66.00
2867;DHT22;1441;48.886;8.728;2024-03-22T09:59:44;21.10;64.50
2867;DHT22;1441;48.886;8.728;2024-03-22T10:02:11;21.80;63.60
2867;DHT22;1441;48.886;8.728;2024-03-22T10:04:38;22.20;63.10
2867;DHT22;1441;48.886;8.728;2024-03-22T10:07:04;21.50;64.10
2867;DHT22;1441;48.886;8.728;2024-03-22T10:09:30;20.60;65.90
2867;DHT22;1441;48.886;8.728;2024-03-22T10:11:57;20.10;67.30
2867;DHT22;1441;48.886;8.728;2024-03-22T10:14:23;20.10;67.70
2867;DHT22;1441;48.886;8.728;2024-03-22T10:16:55;20.00;68.30
2867;DHT22;1441;48.886;8.728;2024-03-22T10:19:21;20.00;67.10
2867;DHT22;1441;48.886;8.728;2024-03-22T10:22:07;20.00;66.90
2867;DHT22;1441;48.886;8.728;2024-03-22T10:24:33;20.10;67.20
2867;DHT22;1441;48.886;8.728;2024-03-22T10:26:59;20.10;67.20
2867;DHT22;1441;48.886;8.728;2024-03-22T10:29:24;20.30;67.60
2867;DHT22;1441;48.886;8.728;2024-03-22T10:31:52;20.50;67.40
2867;DHT22;1441;48.886;8.728;2024-03-22T10:34:18;20.40;66.90
2867;DHT22;1441;48.886;8.728;2024-03-22T10:36:46;20.30;65.90
2867;DHT22;1441;48.886;8.728;2024-03-22T10:39:15;20.30;66.30
2867;DHT22;1441;48.886;8.728;2024-03-22T10:41:43;20.20;67.10
2867;DHT22;1441;48.886;8.728;2024-03-22T10:44:08;19.90;67.70
2867;DHT22;1441;48.886;8.728;2024-03-22T10:46:35;19.70;66.70
2867;DHT22;1441;48.886;8.728;2024-03-22T10:49:02;19.60;67.20
2867;DHT22;1441;48.886;8.728;2024-03-22T10:51:32;19.40;67.50
2867;DHT22;1441;48.886;8.728;2024-03-22T10:54:01;19.40;65.40
2867;DHT22;1441;48.886;8.728;2024-03-22T10:56:28;19.30;67.10
2867;DHT22;1441;48.886;8.728;2024-03-22T10:58:54;19.40;67.50
2867;DHT22;1441;48.886;8.728;2024-03-22T11:01:27;19.60;67.80
2867;DHT22;1441;48.886;8.728;2024-03-22T11:04:08;19.50;66.50
2867;DHT22;1441;48.886;8.728;2024-03-22T11:06:36;19.40;69.00
2867;DHT22;1441;48.886;8.728;2024-03-22T11:09:02;19.40;69.00
2867;DHT22;1441;48.886;8.728;2024-03-22T11:11:30;19.50;68.40
2867;DHT22;1441;48.886;8.728;2024-03-22T11:13:57;19.50;68.50
2867;DHT22;1441;48.886;8.728;2024-03-22T11:16:23;19.60;68.50
2867;DHT22;1441;48.886;8.728;2024-03-22T11:18:49;19.80;69.50
2867;DHT22;1441;48.886;8.728;2024-03-22T11:21:15;19.80;68.40
2867;DHT22;1441;48.886;8.728;2024-03-22T11:23:40;19.90;68.70
2867;DHT22;1441;48.886;8.728;2024-03-22T11:26:06;19.70;69.20
2867;DHT22;1441;48.886;8.728;2024-03-22T11:28:33;19.70;68.80
2867;DHT22;1441;48.886;8.728;2024-03-22T11:30:59;19.60;68.70
2867;DHT22;1441;48.886;8.728;2024-03-22T11:33:25;19.60;68.40
2867;DHT22;1441;48.886;8.728;2024-03-22T11:35:52;19.70;69.60
2867;DHT22;1441;48.886;8.728;2024-03-22T11:38:18;19.50;69.50
2867;DHT22;1441;48.886;8.728;2024-03-22T11:40:45;19.40;69.40
2867;DHT22;1441;48.886;8.728;2024-03-22T11:43:11;19.60;70.60
2867;DHT22;1441;48.886;8.728;2024-03-22T11:45:40;19.50;70.40
2867;DHT22;1441;48.886;8.728;2024-03-22T11:48:06;19.70;69.70
2867;DHT22;1441;48.886;8.728;2024-03-22T11:50:32;19.70;70.10
2867;DHT22;1441;48.886;8.728;2024-03-22T11:52:58;19.60;70.10
2867;DHT22;1441;48.886;8.728;2024-03-22T11:55:27;19.70;70.10
2867;DHT22;1441;48.886;8.728;2024-03-22T11:57:53;19.80;69.30
2867;DHT22;1441;48.886;8.728;2024-03-22T12:00:19;19.90;69.10
2867;DHT22;1441;48.886;8.728;2024-03-22T12:02:45;20.20;67.50
2867;DHT22;1441;48.886;8.728;2024-03-22T12:05:11;20.20;67.50
2867;DHT22;1441;48.886;8.728;2024-03-22T12:07:37;20.00;67.40
2867;DHT22;1441;48.886;8.728;2024-03-22T12:10:03;20.00;66.70
2867;DHT22;1441;48.886;8.728;2024-03-22T12:12:29;20.20;66.80
2867;DHT22;1441;48.886;8.728;2024-03-22T12:14:55;20.20;67.30
2867;DHT22;1441;48.886;8.728;2024-03-22T12:17:21;20.10;66.90
2867;DHT22;1441;48.886;8.728;2024-03-22T12:19:46;20.00;67.20
2867;DHT22;1441;48.886;8.728;2024-03-22T12:22:12;20.10;66.30
2867;DHT22;1441;48.886;8.728;2024-03-22T12:24:38;20.10;64.60
2867;DHT22;1441;48.886;8.728;2024-03-22T12:27:04;20.10;63.50
2867;DHT22;1441;48.886;8.728;2024-03-22T12:29:32;20.10;62.50
2867;DHT22;1441;48.886;8.728;2024-03-22T12:31:58;20.20;63.10
2867;DHT22;1441;48.886;8.728;2024-03-22T12:34:27;20.10;63.90
2867;DHT22;1441;48.886;8.728;2024-03-22T12:36:53;19.90;63.30
2867;DHT22;1441;48.886;8.728;2024-03-22T12:39:18;19.70;63.40
2867;DHT22;1441;48.886;8.728;2024-03-22T12:41:44;19.60;63.80
2867;DHT22;1441;48.886;8.728;2024-03-22T12:44:09;19.50;65.10
2867;DHT22;1441;48.886;8.728;2024-03-22T12:46:35;19.40;64.60
2867;DHT22;1441;48.886;8.728;2024-03-22T12:49:00;19.40;64.70
2867;DHT22;1441;48.886;8.728;2024-03-22T12:51:26;19.40;64.90
2867;DHT22;1441;48.886;8.728;2024-03-22T12:53:51;19.40;64.10
2867;DHT22;1441;48.886;8.728;2024-03-22T12:56:17;19.30;64.50
2867;DHT22;1441;48.886;8.728;2024-03-22T12:58:43;19.20;66.10
2867;DHT22;1441;48.886;8.728;2024-03-22T13:01:09;19.10;65.40
2867;DHT22;1441;48.886;8.728;2024-03-22T13:03:36;19.20;65.80
2867;DHT22;1441;48.886;8.728;2024-03-22T13:06:03;19.30;65.70
2867;DHT22;1441;48.886;8.728;2024-03-22T13:08:29;19.40;65.50
2867;DHT22;1441;48.886;8.728;2024-03-22T13:10:55;19.40;65.40
2867;DHT22;1441;48.886;8.728;2024-03-22T13:13:21;19.50;65.40
2867;DHT22;1441;48.886;8.728;2024-03-22T13:15:46;19.70;65.30
2867;DHT22;1441;48.886;8.728;2024-03-22T13:18:12;20.00;63.20
2867;DHT22;1441;48.886;8.728;2024-03-22T13:20:38;20.30;63.40
2867;DHT22;1441;48.886;8.728;2024-03-22T13:23:04;20.50;62.50
2867;DHT22;1441;48.886;8.728;2024-03-22T13:25:30;20.50;62.40
2867;DHT22;1441;48.886;8.728;2024-03-22T13:27:55;20.60;62.50
2867;DHT22;1441;48.886;8.728;2024-03-22T13:30:22;20.30;62.50
2867;DHT22;1441;48.886;8.728;2024-03-22T13:32:48;20.00;63.60
2867;DHT22;1441;48.886;8.728;2024-03-22T13:35:14;19.70;63.00
2867;DHT22;1441;48.886;8.728;2024-03-22T13:37:40;19.50;63.20
2867;DHT22;1441;48.886;8.728;2024-03-22T13:40:07;19.40;63.70
2867;DHT22;1441;48.886;8.728;2024-03-22T13:42:34;19.30;65.70
2867;DHT22;1441;48.886;8.728;2024-03-22T13:44:59;19.20;65.20
2867;DHT22;1441;48.886;8.728;2024-03-22T13:47:26;19.10;64.80
2867;DHT22;1441;48.886;8.728;2024-03-22T13:49:53;19.00;65.50
2867;DHT22;1441;48.886;8.728;2024-03-22T13:52:18;19.00;65.40
2867;DHT22;1441;48.886;8.728;2024-03-22T13:54:46;18.90;65.90
2867;DHT22;1441;48.886;8.728;2024-03-22T13:57:11;18.80;65.50
2867;DHT22;1441;48.886;8.728;2024-03-22T13:59:37;18.70;65.70
2867;DHT22;1441;48.886;8.728;2024-03-22T14:02:03;18.70;67.10
2867;DHT22;1441;48.886;8.728;2024-03-22T14:04:29;18.80;65.20
2867;DHT22;1441;48.886;8.728;2024-03-22T14:06:54;18.70;66.00
2867;DHT22;1441;48.886;8.728;2024-03-22T14:09:20;18.40;66.40
2867;DHT22;1441;48.886;8.728;2024-03-22T14:11:45;18.30;67.10
2867;DHT22;1441;48.886;8.728;2024-03-22T14:14:14;18.10;67.80
2867;DHT22;1441;48.886;8.728;2024-03-22T14:16:40;18.20;67.80
2867;DHT22;1441;48.886;8.728;2024-03-22T14:19:07;18.40;68.90
2867;DHT22;1441;48.886;8.728;2024-03-22T14:21:34;18.30;67.60
2867;DHT22;1441;48.886;8.728;2024-03-22T14:23:59;18.20;68.50
2867;DHT22;1441;48.886;8.728;2024-03-22T14:26:25;18.10;68.50
2867;DHT22;1441;48.886;8.728;2024-03-22T14:28:50;18.10;69.80
2867;DHT22;1441;48.886;8.728;2024-03-22T14:31:18;18.00;69.50
2867;DHT22;1441;48.886;8.728;2024-03-22T14:33:43;18.00;69.70
2867;DHT22;1441;48.886;8.728;2024-03-22T14:36:09;18.00;70.10
2867;DHT22;1441;48.886;8.728;2024-03-22T14:38:36;17.90;71.00
2867;DHT22;1441;48.886;8.728;2024-03-22T14:41:02;17.90;70.80
2867;DHT22;1441;48.886;8.728;2024-03-22T14:43:28;17.80;70.40
2867;DHT22;1441;48.886;8.728;2024-03-22T14:45:54;17.80;71.00
2867;DHT22;1441;48.886;8.728;2024-03-22T14:48:23;17.80;70.20
2867;DHT22;1441;48.886;8.728;2024-03-22T14:50:49;17.80;71.30
2867;DHT22;1441;48.886;8.728;2024-03-22T14:53:16;17.80;71.80
2867;DHT22;1441;48.886;8.728;2024-03-22T14:55:54;17.80;70.80
2867;DHT22;1441;48.886;8.728;2024-03-22T14:58:23;17.70;71.20
2867;DHT22;1441;48.886;8.728;2024-03-22T15:00:56;17.70;72.00
2867;DHT22;1441;48.886;8.728;2024-03-22T15:03:23;17.60;72.00
2867;DHT22;1441;48.886;8.728;2024-03-22T15:05:50;17.60;72.30
2867;DHT22;1441;48.886;8.728;2024-03-22T15:08:18;17.50;72.10
2867;DHT22;1441;48.886;8.728;2024-03-22T15:10:43;17.40;72.70
2867;DHT22;1441;48.886;8.728;2024-03-22T15:13:09;17.40;72.60
2867;DHT22;1441;48.886;8.728;2024-03-22T15:15:36;17.30;73.30
2867;DHT22;1441;48.886;8.728;2024-03-22T15:18:01;17.30;73.60
2867;DHT22;1441;48.886;8.728;2024-03-22T15:20:27;17.20;74.30
2867;DHT22;1441;48.886;8.728;2024-03-22T15:22:53;17.20;74.40
2867;DHT22;1441;48.886;8.728;2024-03-22T15:25:19;17.10;75.20
2867;DHT22;1441;48.886;8.728;2024-03-22T15:27:45;17.10;75.20
2867;DHT22;1441;48.886;8.728;2024-03-22T15:30:11;17.00;75.20
2867;DHT22;1441;48.886;8.728;2024-03-22T15:32:36;16.90;75.60
2867;DHT22;1441;48.886;8.728;2024-03-22T15:35:02;17.00;76.30
2867;DHT22;1441;48.886;8.728;2024-03-22T15:37:28;16.90;76.40
2867;DHT22;1441;48.886;8.728;2024-03-22T15:39:54;16.90;75.60
2867;DHT22;1441;48.886;8.728;2024-03-22T15:42:19;16.90;76.10
2867;DHT22;1441;48.886;8.728;2024-03-22T15:44:45;16.90;76.60
2867;DHT22;1441;48.886;8.728;2024-03-22T15:47:11;16.90;77.00
2867;DHT22;1441;48.886;8.728;2024-03-22T15:49:37;16.90;76.40
2867;DHT22;1441;48.886;8.728;2024-03-22T15:52:02;16.90;76.40
2867;DHT22;1441;48.886;8.728;2024-03-22T15:54:28;16.90;76.70
2867;DHT22;1441;48.886;8.728;2024-03-22T15:56:54;16.90;76.60
2867;DHT22;1441;48.886;8.728;2024-03-22T15:59:19;17.00;76.40